Time;durP1;ratioP1;P1;durP2;ratioP2;P2;SDS_P1;SDS_P2;PMS_P1;PMS_P2;Temp;Humidity;BMP_temperature;BMP_pressure;BME280_temperature;BME280_humidity;BME280_pressure;Samples;Min_cycle;Max_cycle;Signal;HPM_P1;HPM_P2
2021/10/08 00:00:59;0.00;0.00;0.62;0.00;0.00;0.62;1.33;0.97;;;28.00;29.80;;;;;;2265637;61;20419;-60
2021/10/08 00:03:44;0.00;0.00;0.62;0.00;0.00;0.62;1.67;1.13;;;28.00;29.90;;;;;;2266005;61;20357;-60
2021/10/08 00:06:29;0.00;0.00;0.62;0.00;0.00;0.62;2.50;1.17;;;28.00;29.80;;;;;;2266296;61;20396;-61
2021/10/08 00:09:15;0.00;0.00;0.62;0.00;0.00;0.62;1.40;0.97;;;28.00;29.90;;;;;;2265892;61;20437;-61
2021/10/08 00:11:59;0.00;0.00;0.62;0.00;0.00;0.62;1.47;0.90;;;28.00;29.90;;;;;;2266302;61;20381;-60
2021/10/08 00:14:44;0.00;0.00;0.62;0.00;0.00;0.62;1.53;1.00;;;28.00;29.90;;;;;;2265796;61;20602;-62
2021/10/08 00:17:30;0.00;0.00;0.62;0.00;0.00;0.62;1.30;0.80;;;28.00;29.90;;;;;;2265948;61;20796;-61
2021/10/08 00:20:15;0.00;0.00;0.62;0.00;0.00;0.62;1.70;1.30;;;28.00;29.90;;;;;;2266255;61;20360;-61
2021/10/08 00:22:59;0.00;0.00;0.62;0.00;0.00;0.62;1.63;0.97;;;28.00;29.90;;;;;;2265622;61;20360;-61
2021/10/08 00:25:44;0.00;0.00;0.62;0.00;0.00;0.62;1.37;0.90;;;27.90;29.80;;;;;;2265971;61;20415;-61
2021/10/08 00:28:28;0.00;0.00;0.62;0.00;0.00;0.62;1.40;1.00;;;27.90;29.80;;;;;;2266350;61;20577;-62
2021/10/08 00:31:13;0.00;0.00;0.62;0.00;0.00;0.62;2.03;1.10;;;27.90;29.80;;;;;;2265171;61;20392;-62
2021/10/08 00:33:59;0.00;0.00;0.62;0.00;0.00;0.62;1.70;1.13;;;27.90;29.80;;;;;;2266049;61;20435;-60
2021/10/08 00:36:44;0.00;0.00;0.62;0.00;0.00;0.62;1.37;1.00;;;27.90;29.70;;;;;;2265502;61;20364;-61
2021/10/08 00:39:28;0.00;0.00;0.62;0.00;0.00;0.62;2.30;1.53;;;27.90;29.70;;;;;;2265386;61;20611;-61
2021/10/08 00:42:19;0.00;0.00;0.62;0.00;0.00;0.62;1.70;1.23;;;27.90;29.70;;;;;;2266200;61;20399;-61
2021/10/08 00:45:05;0.00;0.00;0.62;0.00;0.00;0.62;1.50;1.00;;;27.90;29.80;;;;;;2265495;61;20369;-61
2021/10/08 00:48:02;0.00;0.00;0.62;0.00;0.00;0.62;1.67;1.30;;;27.90;29.70;;;;;;2265539;61;20641;-61
2021/10/08 00:50:51;0.00;0.00;0.62;0.00;0.00;0.62;1.80;1.33;;;27.90;29.80;;;;;;2266293;61;20745;-60
2021/10/08 00:53:35;0.00;0.00;0.62;0.00;0.00;0.62;1.70;1.13;;;27.80;29.70;;;;;;2265400;61;20357;-60
2021/10/08 00:56:21;0.00;0.00;0.62;0.00;0.00;0.62;1.87;1.20;;;27.80;29.70;;;;;;2266168;61;20756;-60
2021/10/08 00:59:06;0.00;0.00;0.62;0.00;0.00;0.62;2.40;1.50;;;27.80;29.70;;;;;;2265895;61;20404;-61
2021/10/08 01:01:50;0.00;0.00;0.62;0.00;0.00;0.62;1.73;1.63;;;27.80;29.70;;;;;;2265659;61;20356;-61
2021/10/08 01:04:35;0.00;0.00;0.62;0.00;0.00;0.62;3.70;2.03;;;27.80;29.60;;;;;;2266120;61;20381;-60
2021/10/08 01:07:21;0.00;0.00;0.62;0.00;0.00;0.62;3.37;2.30;;;27.80;29.50;;;;;;2265459;61;20408;-61
2021/10/08 01:10:07;0.00;0.00;0.62;0.00;0.00;0.62;3.13;2.47;;;27.80;29.40;;;;;;2265090;61;20369;-60
2021/10/08 01:12:52;0.00;0.00;0.62;0.00;0.00;0.62;3.20;2.90;;;27.70;29.20;;;;;;2265770;61;20388;-61
2021/10/08 01:15:38;0.00;0.00;0.62;0.00;0.00;0.62;3.20;2.63;;;27.80;29.20;;;;;;2264833;61;20373;-61
2021/10/08 01:18:24;0.00;0.00;0.62;0.00;0.00;0.62;2.90;2.60;;;27.70;29.10;;;;;;2265666;61;20369;-60
2021/10/08 01:21:11;0.00;0.00;0.62;0.00;0.00;0.62;3.13;2.47;;;27.70;29.00;;;;;;2265259;61;20364;-60
2021/10/08 01:23:55;0.00;0.00;0.62;0.00;0.00;0.62;2.90;2.43;;;27.70;29.00;;;;;;2265098;61;20456;-61
2021/10/08 01:26:40;0.00;0.00;0.62;0.00;0.00;0.62;3.17;2.87;;;27.60;28.90;;;;;;2265724;61;20404;-60
2021/10/08 01:29:25;0.00;0.00;0.62;0.00;0.00;0.62;3.13;2.80;;;27.60;28.80;;;;;;2264986;61;20404;-60
2021/10/08 01:32:13;0.00;0.00;0.62;0.00;0.00;0.62;3.30;2.80;;;27.60;28.80;;;;;;2265256;61;20774;-60
2021/10/08 01:35:00;0.00;0.00;0.62;0.00;0.00;0.62;3.83;3.07;;;27.50;28.70;;;;;;2265377;61;20396;-60
2021/10/08 01:37:48;0.00;0.00;0.62;0.00;0.00;0.62;3.70;2.90;;;27.50;28.70;;;;;;2265276;61;20380;-60
2021/10/08 01:40:34;0.00;0.00;0.62;0.00;0.00;0.62;3.40;2.90;;;27.50;28.70;;;;;;2265791;61;20364;-60
2021/10/08 01:43:29;0.00;0.00;0.62;0.00;0.00;0.62;3.87;3.40;;;27.40;28.60;;;;;;2265041;61;20353;-60
2021/10/08 01:46:15;0.00;0.00;0.62;0.00;0.00;0.62;4.00;3.30;;;27.40;28.60;;;;;;2265117;61;20384;-60
2021/10/08 01:49:00;0.00;0.00;0.62;0.00;0.00;0.62;3.80;2.97;;;27.40;28.60;;;;;;2266152;61;20353;-60
2021/10/08 01:51:48;0.00;0.00;0.62;0.00;0.00;0.62;3.40;3.10;;;27.40;28.60;;;;;;2264756;61;20385;-60
2021/10/08 01:54:34;0.00;0.00;0.62;0.00;0.00;0.62;3.47;2.83;;;27.30;28.50;;;;;;2265455;61;20375;-60
2021/10/08 01:57:18;0.00;0.00;0.62;0.00;0.00;0.62;4.90;3.80;;;27.30;28.50;;;;;;2265658;61;20619;-60
2021/10/08 02:00:06;0.00;0.00;0.62;0.00;0.00;0.62;3.50;3.20;;;27.20;28.40;;;;;;2264759;61;20570;-61
2021/10/08 02:02:57;0.00;0.00;0.62;0.00;0.00;0.62;4.43;3.93;;;27.20;28.40;;;;;;2265927;61;20774;-60
2021/10/08 02:05:43;0.00;0.00;0.62;0.00;0.00;0.62;4.27;3.80;;;27.20;28.40;;;;;;2265096;61;20465;-60
2021/10/08 02:08:28;0.00;0.00;0.62;0.00;0.00;0.62;4.20;3.80;;;27.20;28.40;;;;;;2265112;61;20365;-61
2021/10/08 02:11:18;0.00;0.00;0.62;0.00;0.00;0.62;4.00;3.60;;;27.10;28.30;;;;;;2265453;61;20601;-60
2021/10/08 02:14:04;0.00;0.00;0.62;0.00;0.00;0.62;5.23;3.43;;;27.10;28.30;;;;;;2264537;61;20365;-60
2021/10/08 02:16:49;0.00;0.00;0.62;0.00;0.00;0.62;3.80;3.30;;;27.00;28.30;;;;;;2265224;61;20437;-60
2021/10/08 02:19:34;0.00;0.00;0.62;0.00;0.00;0.62;3.97;3.47;;;27.00;28.30;;;;;;2265529;61;20361;-60
2021/10/08 02:22:20;0.00;0.00;0.62;0.00;0.00;0.62;7.30;3.90;;;27.00;28.30;;;;;;2264638;61;20403;-61
2021/10/08 02:25:09;0.00;0.00;0.62;0.00;0.00;0.62;5.67;4.40;;;27.00;28.30;;;;;;2265447;61;20385;-61
2021/10/08 02:27:54;0.00;0.00;0.62;0.00;0.00;0.62;5.20;4.70;;;26.90;28.20;;;;;;2265074;61;20448;-61
2021/10/08 02:30:39;0.00;0.00;0.62;0.00;0.00;0.62;4.73;4.13;;;26.90;28.20;;;;;;2265099;61;20432;-61
2021/10/08 02:33:24;0.00;0.00;0.62;0.00;0.00;0.62;5.10;3.80;;;26.90;28.20;;;;;;2265578;61;20509;-61
2021/10/08 02:36:09;0.00;0.00;0.62;0.00;0.00;0.62;4.73;4.23;;;26.80;28.20;;;;;;2264652;61;20385;-61
2021/10/08 02:38:54;0.00;0.00;0.62;0.00;0.00;0.62;4.80;4.30;;;26.80;28.20;;;;;;2265219;61;20728;-61
2021/10/08 02:41:39;0.00;0.00;0.62;0.00;0.00;0.62;4.60;4.17;;;26.80;28.20;;;;;;2265372;61;20433;-61
2021/10/08 02:44:25;0.00;0.00;0.62;0.00;0.00;0.62;4.50;4.10;;;26.80;28.20;;;;;;2264871;61;20754;-61
2021/10/08 02:47:10;0.00;0.00;0.62;0.00;0.00;0.62;4.63;4.20;;;26.70;28.20;;;;;;2265579;61;20365;-60
2021/10/08 02:49:56;0.00;0.00;0.62;0.00;0.00;0.62;4.77;4.37;;;26.70;28.20;;;;;;2264865;61;20361;-61
2021/10/08 02:52:42;0.00;0.00;0.62;0.00;0.00;0.62;4.23;3.43;;;26.70;28.20;;;;;;2264779;61;20436;-60
2021/10/08 02:55:28;0.00;0.00;0.62;0.00;0.00;0.62;4.13;3.73;;;26.70;28.20;;;;;;2265416;61;20372;-61
2021/10/08 02:58:13;0.00;0.00;0.62;0.00;0.00;0.62;4.53;4.13;;;26.60;28.20;;;;;;2264554;61;20373;-60
2021/10/08 03:01:00;0.00;0.00;0.62;0.00;0.00;0.62;4.77;4.33;;;26.60;28.20;;;;;;2265150;61;20361;-60
2021/10/08 03:03:44;0.00;0.00;0.62;0.00;0.00;0.62;4.23;3.83;;;26.60;28.20;;;;;;2265394;61;20372;-60
2021/10/08 03:06:29;0.00;0.00;0.62;0.00;0.00;0.62;4.43;4.03;;;26.50;28.20;;;;;;2264381;61;20435;-61
2021/10/08 03:09:14;0.00;0.00;0.62;0.00;0.00;0.62;4.60;4.07;;;26.50;28.20;;;;;;2265227;61;20395;-61
2021/10/08 03:12:00;0.00;0.00;0.62;0.00;0.00;0.62;5.37;4.87;;;26.50;28.30;;;;;;2264933;61;20769;-60
2021/10/08 03:14:45;0.00;0.00;0.62;0.00;0.00;0.62;5.40;4.33;;;26.50;28.30;;;;;;2264453;61;20380;-61
2021/10/08 03:17:32;0.00;0.00;0.62;0.00;0.00;0.62;4.20;3.70;;;26.50;28.30;;;;;;2265408;61;20380;-61
2021/10/08 03:20:17;0.00;0.00;0.62;0.00;0.00;0.62;5.40;4.73;;;26.40;28.20;;;;;;2264574;61;20352;-60
2021/10/08 03:23:02;0.00;0.00;0.62;0.00;0.00;0.62;4.87;3.97;;;26.40;28.20;;;;;;2264910;61;20360;-61
2021/10/08 03:25:46;0.00;0.00;0.62;0.00;0.00;0.62;4.33;3.70;;;26.40;28.20;;;;;;2265281;61;20412;-61
2021/10/08 03:28:33;0.00;0.00;0.62;0.00;0.00;0.62;4.90;4.30;;;26.30;28.10;;;;;;2264871;61;20365;-61
2021/10/08 03:31:18;0.00;0.00;0.62;0.00;0.00;0.62;4.97;4.47;;;26.30;28.10;;;;;;2264919;61;20361;-61
2021/10/08 03:34:04;0.00;0.00;0.62;0.00;0.00;0.62;4.33;3.73;;;26.30;28.10;;;;;;2264845;61;20403;-61
2021/10/08 03:36:51;0.00;0.00;0.62;0.00;0.00;0.62;4.33;3.93;;;26.30;28.20;;;;;;2264693;61;20384;-61
2021/10/08 03:39:39;0.00;0.00;0.62;0.00;0.00;0.62;5.10;4.37;;;26.20;28.10;;;;;;2265297;61;20407;-60
2021/10/08 03:42:24;0.00;0.00;0.62;0.00;0.00;0.62;4.10;3.70;;;26.20;28.10;;;;;;2264536;61;20769;-60
2021/10/08 03:45:13;0.00;0.00;0.62;0.00;0.00;0.62;4.73;4.07;;;26.20;28.10;;;;;;2265267;61;20737;-61
2021/10/08 03:48:20;0.00;0.00;0.62;0.00;0.00;0.62;4.40;4.00;;;26.20;28.10;;;;;;2265268;61;20357;-61
2021/10/08 03:51:06;0.00;0.00;0.62;0.00;0.00;0.62;4.67;4.17;;;26.10;28.00;;;;;;2264887;61;20365;-61
2021/10/08 03:53:50;0.00;0.00;0.62;0.00;0.00;0.62;4.97;4.47;;;26.10;28.00;;;;;;2265468;61;20364;-61
2021/10/08 03:56:35;0.00;0.00;0.62;0.00;0.00;0.62;4.73;4.10;;;26.10;28.00;;;;;;2264690;61;20396;-60
2021/10/08 03:59:20;0.00;0.00;0.62;0.00;0.00;0.62;4.37;3.70;;;26.00;28.00;;;;;;2265272;61;20369;-60
2021/10/08 04:02:06;0.00;0.00;0.62;0.00;0.00;0.62;4.23;3.83;;;26.00;28.00;;;;;;2265179;61;20396;-60
2021/10/08 04:04:51;0.00;0.00;0.62;0.00;0.00;0.62;7.60;4.40;;;26.00;28.00;;;;;;2264338;61;20384;-60
2021/10/08 04:07:37;0.00;0.00;0.62;0.00;0.00;0.62;5.00;4.50;;;26.00;28.00;;;;;;2264966;61;20353;-61
2021/10/08 04:10:24;0.00;0.00;0.62;0.00;0.00;0.62;4.50;3.90;;;26.00;28.00;;;;;;2265151;61;20369;-61
2021/10/08 04:13:08;0.00;0.00;0.62;0.00;0.00;0.62;5.63;5.03;;;25.90;27.90;;;;;;2264692;61;20393;-61
2021/10/08 04:15:55;0.00;0.00;0.62;0.00;0.00;0.62;5.20;4.30;;;25.90;27.90;;;;;;2265029;61;20746;-61
2021/10/08 04:18:41;0.00;0.00;0.62;0.00;0.00;0.62;4.83;4.33;;;25.90;27.90;;;;;;2264865;61;20778;-61
2021/10/08 04:21:26;0.00;0.00;0.62;0.00;0.00;0.62;4.60;4.13;;;25.80;27.90;;;;;;2264656;61;20365;-61
2021/10/08 04:24:12;0.00;0.00;0.62;0.00;0.00;0.62;4.30;3.63;;;25.80;27.90;;;;;;2265061;61;20361;-61
2021/10/08 04:26:58;0.00;0.00;0.62;0.00;0.00;0.62;4.03;3.70;;;25.80;27.90;;;;;;2264485;61;20757;-60
2021/10/08 04:29:43;0.00;0.00;0.62;0.00;0.00;0.62;6.80;3.97;;;25.80;27.90;;;;;;2265247;61;20365;-60
2021/10/08 04:32:29;0.00;0.00;0.62;0.00;0.00;0.62;4.17;3.77;;;25.70;27.90;;;;;;2265128;61;20388;-60
2021/10/08 04:35:14;0.00;0.00;0.62;0.00;0.00;0.62;4.73;4.23;;;25.70;27.80;;;;;;2264229;61;20384;-60
2021/10/08 04:38:00;0.00;0.00;0.62;0.00;0.00;0.62;4.53;4.13;;;25.70;27.80;;;;;;2264964;61;20428;-60
2021/10/08 04:40:46;0.00;0.00;0.62;0.00;0.00;0.62;6.10;4.20;;;25.70;27.80;;;;;;2264842;61;20364;-60
2021/10/08 04:43:31;0.00;0.00;0.62;0.00;0.00;0.62;4.30;3.90;;;25.70;27.80;;;;;;2264516;61;20360;-60
2021/10/08 04:46:17;0.00;0.00;0.62;0.00;0.00;0.62;4.37;3.97;;;25.70;27.80;;;;;;2265766;61;20426;-60
2021/10/08 04:49:01;0.00;0.00;0.62;0.00;0.00;0.62;4.77;4.37;;;25.60;27.80;;;;;;2265135;61;20404;-60
2021/10/08 04:51:47;0.00;0.00;0.62;0.00;0.00;0.62;4.37;3.97;;;25.60;27.80;;;;;;2265310;61;20804;-61
2021/10/08 04:54:32;0.00;0.00;0.62;0.00;0.00;0.62;4.77;4.30;;;25.60;27.80;;;;;;2265606;61;20381;-60
2021/10/08 04:57:19;0.00;0.00;0.62;0.00;0.00;0.62;4.30;3.90;;;25.50;27.80;;;;;;2264846;61;20743;-61
2021/10/08 05:00:06;0.00;0.00;0.62;0.00;0.00;0.62;5.30;4.37;;;25.50;27.80;;;;;;2265537;61;20749;-60
2021/10/08 05:02:52;0.00;0.00;0.62;0.00;0.00;0.62;4.60;4.17;;;25.50;27.80;;;;;;2265818;61;20472;-60
2021/10/08 05:05:38;0.00;0.00;0.62;0.00;0.00;0.62;4.57;4.10;;;25.50;27.80;;;;;;2264927;61;20454;-60
2021/10/08 05:08:24;0.00;0.00;0.62;0.00;0.00;0.62;4.90;3.87;;;25.50;27.90;;;;;;2265869;61;20365;-61
2021/10/08 05:11:10;0.00;0.00;0.62;0.00;0.00;0.62;7.20;5.33;;;25.40;27.80;;;;;;2264905;61;20761;-61
2021/10/08 05:13:56;0.00;0.00;0.62;0.00;0.00;0.62;4.83;4.43;;;25.40;27.80;;;;;;2265102;61;20354;-61
2021/10/08 05:16:42;0.00;0.00;0.62;0.00;0.00;0.62;6.57;4.37;;;25.40;27.80;;;;;;2265865;61;20365;-61
2021/10/08 05:19:27;0.00;0.00;0.62;0.00;0.00;0.62;6.27;4.77;;;25.40;27.90;;;;;;2264796;61;20717;-61
2021/10/08 05:22:22;0.00;0.00;0.62;0.00;0.00;0.62;9.60;4.33;;;25.40;27.90;;;;;;2265523;61;20426;-61
2021/10/08 05:25:07;0.00;0.00;0.62;0.00;0.00;0.62;5.50;4.10;;;25.40;27.90;;;;;;2265277;61;20373;-61
2021/10/08 05:27:52;0.00;0.00;0.62;0.00;0.00;0.62;5.40;4.80;;;25.30;27.90;;;;;;2265015;61;20361;-60
2021/10/08 05:30:39;0.00;0.00;0.62;0.00;0.00;0.62;4.63;3.77;;;25.30;27.90;;;;;;2265766;61;20368;-61
2021/10/08 05:33:24;0.00;0.00;0.62;0.00;0.00;0.62;6.77;4.43;;;25.30;27.90;;;;;;2264932;61;20389;-60
2021/10/08 05:36:08;0.00;0.00;0.62;0.00;0.00;0.62;7.77;4.10;;;25.20;27.80;;;;;;2265411;61;20671;-60
2021/10/08 05:38:53;0.00;0.00;0.62;0.00;0.00;0.62;8.80;4.00;;;25.20;27.80;;;;;;2266104;61;20430;-61
2021/10/08 05:41:37;0.00;0.00;0.62;0.00;0.00;0.62;4.30;3.90;;;25.20;27.80;;;;;;2264704;61;20724;-61
2021/10/08 05:44:22;0.00;0.00;0.62;0.00;0.00;0.62;4.37;3.97;;;25.20;27.80;;;;;;2265411;61;20463;-61
2021/10/08 05:47:08;0.00;0.00;0.62;0.00;0.00;0.62;4.60;4.17;;;25.20;27.80;;;;;;2265462;61;20392;-61
2021/10/08 05:49:53;0.00;0.00;0.62;0.00;0.00;0.62;5.07;3.90;;;25.10;27.80;;;;;;2265046;61;20576;-61
2021/10/08 05:52:38;0.00;0.00;0.62;0.00;0.00;0.62;5.40;4.17;;;25.10;27.80;;;;;;2265957;61;20389;-60
2021/10/08 05:55:24;0.00;0.00;0.62;0.00;0.00;0.62;6.63;4.57;;;25.10;27.80;;;;;;2264377;61;20412;-61
2021/10/08 05:58:09;0.00;0.00;0.62;0.00;0.00;0.62;4.20;3.80;;;25.10;27.80;;;;;;2265352;61;20441;-60
2021/10/08 06:00:54;0.00;0.00;0.62;0.00;0.00;0.62;5.83;3.57;;;25.10;28.40;;;;;;2265660;61;20435;-61
2021/10/08 06:03:39;0.00;0.00;0.62;0.00;0.00;0.62;4.63;4.23;;;25.10;27.90;;;;;;2264986;61;20710;-61
2021/10/08 06:06:24;0.00;0.00;0.62;0.00;0.00;0.62;5.20;3.90;;;25.10;27.90;;;;;;2265287;61;20408;-61
2021/10/08 06:09:08;0.00;0.00;0.62;0.00;0.00;0.62;5.20;3.83;;;25.00;27.80;;;;;;2265918;61;20388;-60
2021/10/08 06:11:55;0.00;0.00;0.62;0.00;0.00;0.62;4.37;3.97;;;25.00;27.80;;;;;;2264834;61;20380;-61
2021/10/08 06:14:39;0.00;0.00;0.62;0.00;0.00;0.62;4.20;3.60;;;25.00;27.80;;;;;;2265790;61;20457;-62
2021/10/08 06:17:24;0.00;0.00;0.62;0.00;0.00;0.62;8.77;4.57;;;25.00;27.80;;;;;;2265364;61;20361;-62
2021/10/08 06:20:12;0.00;0.00;0.62;0.00;0.00;0.62;5.30;3.93;;;25.00;27.80;;;;;;2265229;61;20397;-61
2021/10/08 06:22:59;0.00;0.00;0.62;0.00;0.00;0.62;4.50;3.30;;;25.00;27.90;;;;;;2265404;61;20411;-61
2021/10/08 06:25:45;0.00;0.00;0.62;0.00;0.00;0.62;4.50;4.10;;;25.00;27.90;;;;;;2264653;61;20385;-61
2021/10/08 06:28:30;0.00;0.00;0.62;0.00;0.00;0.62;6.30;4.43;;;24.90;27.80;;;;;;2265268;61;20396;-60
2021/10/08 06:31:15;0.00;0.00;0.62;0.00;0.00;0.62;6.03;3.90;;;24.90;27.80;;;;;;2265426;61;20392;-61
2021/10/08 06:34:03;0.00;0.00;0.62;0.00;0.00;0.62;8.03;4.53;;;24.90;27.80;;;;;;2264672;61;20591;-61
2021/10/08 06:36:50;0.00;0.00;0.62;0.00;0.00;0.62;6.10;4.53;;;24.90;27.80;;;;;;2265564;61;20399;-61
2021/10/08 06:39:35;0.00;0.00;0.62;0.00;0.00;0.62;6.07;4.43;;;24.90;27.80;;;;;;2262205;61;20365;-62
2021/10/08 06:42:24;0.00;0.00;0.62;0.00;0.00;0.62;4.57;3.87;;;24.90;27.80;;;;;;2265079;61;20357;-62
2021/10/08 06:45:12;0.00;0.00;0.62;0.00;0.00;0.62;5.20;4.70;;;24.90;27.80;;;;;;2265343;61;20380;-60
2021/10/08 06:47:56;0.00;0.00;0.62;0.00;0.00;0.62;6.30;5.43;;;24.80;27.70;;;;;;2264648;61;20416;-59
2021/10/08 06:50:42;0.00;0.00;0.62;0.00;0.00;0.62;6.00;4.63;;;24.80;27.70;;;;;;2265129;61;20399;-61
2021/10/08 06:53:30;0.00;0.00;0.62;0.00;0.00;0.62;5.17;4.33;;;24.70;27.60;;;;;;2265255;61;20389;-60
2021/10/08 06:56:15;0.00;0.00;0.62;0.00;0.00;0.62;5.90;4.87;;;24.70;27.70;;;;;;2265220;61;20385;-59
2021/10/08 06:59:26;0.00;0.00;0.62;0.00;0.00;0.62;5.80;5.17;;;24.70;27.70;;;;;;2265778;61;20407;-60
2021/10/08 07:02:10;0.00;0.00;0.62;0.00;0.00;0.62;5.53;4.60;;;24.70;27.70;;;;;;2264760;61;20666;-63
2021/10/08 07:04:57;0.00;0.00;0.62;0.00;0.00;0.62;8.40;4.80;;;24.70;27.70;;;;;;2264943;61;20380;-59
2021/10/08 07:07:42;0.00;0.00;0.62;0.00;0.00;0.62;5.43;4.53;;;24.70;27.70;;;;;;2265266;61;20431;-62
2021/10/08 07:10:29;0.00;0.00;0.62;0.00;0.00;0.62;5.57;4.77;;;24.70;27.70;;;;;;2264528;61;20365;-60
2021/10/08 07:13:14;0.00;0.00;0.62;0.00;0.00;0.62;6.43;4.40;;;24.70;27.80;;;;;;2265021;61;20389;-60
2021/10/08 07:15:59;0.00;0.00;0.62;0.00;0.00;0.62;4.83;4.40;;;24.70;28.30;;;;;;2265754;61;20648;-60
2021/10/08 07:18:49;0.00;0.00;0.62;0.00;0.00;0.62;5.67;4.23;;;24.70;27.70;;;;;;2265083;61;20407;-60
2021/10/08 07:21:35;0.00;0.00;0.62;0.00;0.00;0.62;7.93;5.27;;;24.70;27.70;;;;;;2265710;61;20364;-59
2021/10/08 07:24:20;0.00;0.00;0.62;0.00;0.00;0.62;6.23;4.50;;;24.70;27.70;;;;;;2264945;61;20357;-62
2021/10/08 07:27:06;0.00;0.00;0.62;0.00;0.00;0.62;7.70;4.63;;;24.70;27.80;;;;;;2265270;61;20400;-60
2021/10/08 07:29:51;0.00;0.00;0.62;0.00;0.00;0.62;7.17;4.47;;;24.70;27.80;;;;;;2265807;61;20368;-59
2021/10/08 07:32:36;0.00;0.00;0.62;0.00;0.00;0.62;6.60;5.00;;;24.70;27.80;;;;;;2264975;61;20419;-58
2021/10/08 07:35:21;0.00;0.00;0.62;0.00;0.00;0.62;8.37;5.47;;;24.60;27.80;;;;;;2265265;61;20381;-62
2021/10/08 07:38:05;0.00;0.00;0.62;0.00;0.00;0.62;5.10;4.60;;;24.70;27.80;;;;;;2265884;61;20624;-61
2021/10/08 07:40:50;0.00;0.00;0.62;0.00;0.00;0.62;6.60;4.90;;;24.70;27.80;;;;;;2265098;61;20425;-60
2021/10/08 07:43:37;0.00;0.00;0.62;0.00;0.00;0.62;6.47;4.83;;;24.70;27.90;;;;;;2265580;61;20407;-59
2021/10/08 07:46:21;0.00;0.00;0.62;0.00;0.00;0.62;5.00;4.00;;;24.70;27.80;;;;;;2264968;61;20448;-62
2021/10/08 07:49:06;0.00;0.00;0.62;0.00;0.00;0.62;6.37;4.70;;;24.70;28.40;;;;;;2265171;61;20361;-62
2021/10/08 07:51:52;0.00;0.00;0.62;0.00;0.00;0.62;6.00;4.10;;;24.70;27.90;;;;;;2265350;61;20349;-62
2021/10/08 07:54:37;0.00;0.00;0.62;0.00;0.00;0.62;6.60;5.07;;;24.70;27.90;;;;;;2264255;61;20377;-59
2021/10/08 07:57:23;0.00;0.00;0.62;0.00;0.00;0.62;6.73;5.10;;;24.70;27.90;;;;;;2265324;61;20393;-63
2021/10/08 08:00:11;0.00;0.00;0.62;0.00;0.00;0.62;5.43;4.20;;;24.70;28.00;;;;;;2265766;61;20356;-57
2021/10/08 08:02:59;0.00;0.00;0.62;0.00;0.00;0.62;5.07;4.43;;;24.70;28.00;;;;;;2264719;61;20676;-62
2021/10/08 08:05:44;0.00;0.00;0.62;0.00;0.00;0.62;20.43;6.30;;;24.70;28.00;;;;;;2265701;61;20612;-60
2021/10/08 08:08:29;0.00;0.00;0.62;0.00;0.00;0.62;13.40;6.20;;;24.70;27.90;;;;;;2264688;61;20445;-60
2021/10/08 08:11:13;0.00;0.00;0.62;0.00;0.00;0.62;16.10;7.40;;;24.70;27.90;;;;;;2265109;61;20592;-57
2021/10/08 08:13:58;0.00;0.00;0.62;0.00;0.00;0.62;19.70;7.90;;;24.70;27.90;;;;;;2265556;61;20481;-61
2021/10/08 08:16:44;0.00;0.00;0.62;0.00;0.00;0.62;28.27;8.87;;;24.70;27.90;;;;;;2264742;61;20395;-61
2021/10/08 08:19:28;0.00;0.00;0.62;0.00;0.00;0.62;27.27;10.17;;;24.70;27.90;;;;;;2266036;61;20361;-60
2021/10/08 08:22:13;0.00;0.00;0.62;0.00;0.00;0.62;24.27;9.27;;;24.70;27.90;;;;;;2266375;61;20391;-60
2021/10/08 08:24:57;0.00;0.00;0.62;0.00;0.00;0.62;30.37;9.83;;;24.70;28.00;;;;;;2265436;61;20385;-60
2021/10/08 08:27:42;0.00;0.00;0.62;0.00;0.00;0.62;34.77;9.17;;;24.70;28.00;;;;;;2266532;61;20443;-61
2021/10/08 08:30:27;0.00;0.00;0.62;0.00;0.00;0.62;18.27;8.00;;;24.80;28.10;;;;;;2265759;61;20364;-61
2021/10/08 08:33:13;0.00;0.00;0.62;0.00;0.00;0.62;22.27;8.80;;;24.80;28.10;;;;;;2265746;61;20396;-62
2021/10/08 08:35:58;0.00;0.00;0.62;0.00;0.00;0.62;26.07;9.10;;;24.80;28.10;;;;;;2266379;61;20388;-61
2021/10/08 08:38:42;0.00;0.00;0.62;0.00;0.00;0.62;35.93;9.57;;;24.80;28.10;;;;;;2265624;61;20613;-59
2021/10/08 08:41:27;0.00;0.00;0.62;0.00;0.00;0.62;42.07;10.90;;;24.80;28.20;;;;;;2266482;61;20400;-61
2021/10/08 08:44:11;0.00;0.00;0.62;0.00;0.00;0.62;44.23;10.73;;;24.80;28.20;;;;;;2266348;61;20361;-61
2021/10/08 08:46:57;0.00;0.00;0.62;0.00;0.00;0.62;24.73;10.40;;;24.90;28.30;;;;;;2265502;61;20436;-61
2021/10/08 08:49:43;0.00;0.00;0.62;0.00;0.00;0.62;22.50;9.40;;;24.90;28.20;;;;;;2266010;61;20356;-60
2021/10/08 08:52:28;0.00;0.00;0.62;0.00;0.00;0.62;29.93;9.40;;;24.90;28.20;;;;;;2265516;61;20459;-61
2021/10/08 08:55:12;0.00;0.00;0.62;0.00;0.00;0.62;23.10;9.53;;;24.90;28.20;;;;;;2265959;61;20726;-61
2021/10/08 08:57:57;0.00;0.00;0.62;0.00;0.00;0.62;30.20;9.57;;;24.90;28.20;;;;;;2266318;61;20357;-61
2021/10/08 09:00:45;0.00;0.00;0.62;0.00;0.00;0.62;22.43;9.37;;;24.90;28.20;;;;;;2265458;61;20721;-60
2021/10/08 09:03:30;0.00;0.00;0.62;0.00;0.00;0.62;23.60;9.20;;;25.00;28.30;;;;;;2266188;61;20395;-58
2021/10/08 09:06:28;0.00;0.00;0.62;0.00;0.00;0.62;19.13;8.53;;;25.00;28.30;;;;;;2266021;61;20802;-61
2021/10/08 09:09:15;0.00;0.00;0.62;0.00;0.00;0.62;19.60;8.33;;;25.00;28.30;;;;;;2265483;61;20357;-58
2021/10/08 09:12:00;0.00;0.00;0.62;0.00;0.00;0.62;28.57;9.20;;;25.00;28.30;;;;;;2266136;61;20420;-59
2021/10/08 09:14:44;0.00;0.00;0.62;0.00;0.00;0.62;27.90;9.70;;;25.00;28.30;;;;;;2265535;61;20404;-61
2021/10/08 09:17:29;0.00;0.00;0.62;0.00;0.00;0.62;19.50;7.23;;;25.00;28.40;;;;;;2266115;61;20360;-58
2021/10/08 09:20:17;0.00;0.00;0.62;0.00;0.00;0.62;23.43;7.67;;;25.10;28.40;;;;;;2266130;61;20664;-62
2021/10/08 09:23:04;0.00;0.00;0.62;0.00;0.00;0.62;18.00;8.20;;;25.10;28.40;;;;;;2265418;61;20568;-60
2021/10/08 09:25:49;0.00;0.00;0.62;0.00;0.00;0.62;18.10;7.43;;;25.10;28.40;;;;;;2266184;61;20388;-61
2021/10/08 09:28:51;0.00;0.00;0.62;0.00;0.00;0.62;15.70;6.40;;;25.10;28.40;;;;;;2266102;61;20709;-59
2021/10/08 09:31:40;0.00;0.00;0.62;0.00;0.00;0.62;16.77;7.20;;;25.20;28.50;;;;;;2265491;61;20720;-61
2021/10/08 09:34:25;0.00;0.00;0.62;0.00;0.00;0.62;11.97;7.70;;;25.20;28.50;;;;;;2265805;61;20372;-59
2021/10/08 09:37:11;0.00;0.00;0.62;0.00;0.00;0.62;19.83;7.27;;;25.20;28.50;;;;;;2265842;61;20357;-60
2021/10/08 09:39:58;0.00;0.00;0.62;0.00;0.00;0.62;19.80;8.77;;;25.30;28.60;;;;;;2266188;61;20607;-60
2021/10/08 09:42:42;0.00;0.00;0.62;0.00;0.00;0.62;13.50;7.50;;;25.30;28.60;;;;;;2265958;61;20357;-60
2021/10/08 09:45:43;0.00;0.00;0.62;0.00;0.00;0.62;13.80;6.63;;;25.30;28.50;;;;;;2265495;61;20716;-61
2021/10/08 09:48:41;0.00;0.00;0.62;0.00;0.00;0.62;14.40;7.77;;;25.40;28.60;;;;;;2266037;61;20392;-61
2021/10/08 09:51:31;0.00;0.00;0.62;0.00;0.00;0.62;12.80;6.40;;;25.40;28.60;;;;;;2266052;61;20572;-60
2021/10/08 09:54:16;0.00;0.00;0.62;0.00;0.00;0.62;13.77;5.97;;;25.40;28.60;;;;;;2265530;61;20593;-60
2021/10/08 09:57:02;0.00;0.00;0.62;0.00;0.00;0.62;15.83;6.70;;;25.50;28.70;;;;;;2265939;61;20365;-58
2021/10/08 09:59:49;0.00;0.00;0.62;0.00;0.00;0.62;9.37;5.90;;;25.50;28.70;;;;;;2265477;61;20880;-60
2021/10/08 10:02:34;0.00;0.00;0.62;0.00;0.00;0.62;10.93;5.17;;;25.50;28.60;;;;;;2265879;61;20357;-60
2021/10/08 10:05:24;0.00;0.00;0.62;0.00;0.00;0.62;12.33;6.57;;;25.50;28.60;;;;;;2265976;61;20380;-60
2021/10/08 10:08:09;0.00;0.00;0.62;0.00;0.00;0.62;9.50;5.40;;;25.60;28.70;;;;;;2265412;61;20415;-60
2021/10/08 10:10:55;0.00;0.00;0.62;0.00;0.00;0.62;6.80;4.50;;;25.70;28.70;;;;;;2265866;61;20404;-59
2021/10/08 10:13:44;0.00;0.00;0.62;0.00;0.00;0.62;8.60;5.90;;;25.70;28.70;;;;;;2265645;61;20389;-61
2021/10/08 10:16:35;0.00;0.00;0.62;0.00;0.00;0.62;7.30;4.70;;;25.70;28.70;;;;;;2265643;61;20385;-61
2021/10/08 10:19:21;0.00;0.00;0.62;0.00;0.00;0.62;10.27;5.43;;;25.80;28.70;;;;;;2266073;61;20568;-58
2021/10/08 10:22:07;0.00;0.00;0.62;0.00;0.00;0.62;8.50;4.80;;;25.80;28.70;;;;;;2264858;61;20372;-61
2021/10/08 10:24:53;0.00;0.00;0.62;0.00;0.00;0.62;8.47;5.80;;;25.80;28.70;;;;;;2265679;61;20454;-61
2021/10/08 10:27:39;0.00;0.00;0.62;0.00;0.00;0.62;9.03;5.20;;;25.80;28.70;;;;;;2266122;61;20416;-60
2021/10/08 10:30:26;0.00;0.00;0.62;0.00;0.00;0.62;8.77;5.17;;;25.90;28.70;;;;;;2264985;61;20448;-60
2021/10/08 10:33:11;0.00;0.00;0.62;0.00;0.00;0.62;8.37;4.70;;;25.90;28.70;;;;;;2265823;61;20540;-60
2021/10/08 10:35:59;0.00;0.00;0.62;0.00;0.00;0.62;8.50;4.10;;;26.00;28.70;;;;;;2265626;61;20396;-60
2021/10/08 10:38:44;0.00;0.00;0.62;0.00;0.00;0.62;7.43;4.93;;;26.00;28.70;;;;;;2265631;61;20404;-60
2021/10/08 10:41:29;0.00;0.00;0.62;0.00;0.00;0.62;6.83;4.13;;;26.00;28.70;;;;;;2266032;61;20419;-60
2021/10/08 10:44:19;0.00;0.00;0.62;0.00;0.00;0.62;7.53;4.80;;;26.00;28.60;;;;;;2265091;61;20423;-60
2021/10/08 10:47:18;0.00;0.00;0.62;0.00;0.00;0.62;7.43;4.40;;;26.10;28.70;;;;;;2266081;61;20353;-60
2021/10/08 10:50:15;0.00;0.00;0.62;0.00;0.00;0.62;8.20;4.57;;;26.10;28.70;;;;;;2265672;61;20353;-60
2021/10/08 10:53:00;0.00;0.00;0.62;0.00;0.00;0.62;6.53;3.90;;;26.10;28.70;;;;;;2264934;61;20389;-59
2021/10/08 10:55:44;0.00;0.00;0.62;0.00;0.00;0.62;6.77;3.73;;;26.20;28.70;;;;;;2265914;61;20740;-59